Time;durP1;ratioP1;P1;durP2;ratioP2;P2;SDS_P1;SDS_P2;PMS_P1;PMS_P2;Temp;Humidity;BMP_temperature;BMP_pressure;BME280_temperature;BME280_humidity;BME280_pressure;Samples;Min_cycle;Max_cycle;Signal;HPM_P1;HPM_P2
2021/10/26 00:00:12;;;;;;;16.60;7.18;;;179.60;2252.80;;;;;;5114989;27;19998;-80
2021/10/26 00:02:38;;;;;;;;;;;179.60;2252.80;;;;;;5114957;27;20057;-78
2021/10/26 00:05:06;;;;;;;16.70;7.18;;;179.70;2252.80;;;;;;5115010;27;19957;-78
2021/10/26 00:07:32;;;;;;;11.10;6.97;;;179.70;2252.80;;;;;;5132442;27;20049;-80
2021/10/26 00:09:58;;;;;;;12.25;7.28;;;179.80;2252.80;;;;;;5114763;27;20472;-80
2021/10/26 00:12:23;;;;;;;;;;;179.80;2252.80;;;;;;5115269;27;20054;-78
2021/10/26 00:14:49;;;;;;;12.55;7.13;;;179.80;2252.80;;;;;;5114463;27;20007;-78
2021/10/26 00:17:15;;;;;;;;;;;179.70;2252.80;;;;;;5114396;27;20027;-77
2021/10/26 00:19:41;;;;;;;11.73;6.85;;;179.60;2252.80;;;;;;5112969;27;20023;-77
2021/10/26 00:22:07;;;;;;;;;;;179.60;2252.80;;;;;;5114854;27;20049;-78
2021/10/26 00:24:33;;;;;;;18.77;6.93;;;179.60;2252.80;;;;;;5115028;28;19911;-81
2021/10/26 00:26:59;;;;;;;14.75;7.32;;;179.50;2252.80;;;;;;5114884;27;20015;-79
2021/10/26 00:29:24;;;;;;;;;;;179.60;2252.80;;;;;;5115514;27;20069;-81
2021/10/26 00:31:51;;;;;;;11.30;6.28;;;179.50;2252.80;;;;;;5114647;27;20356;-79
2021/10/26 00:34:17;;;;;;;12.13;6.75;;;179.50;2252.80;;;;;;5112730;27;20030;-78
2021/10/26 00:36:43;;;;;;;10.75;6.20;;;179.40;2252.80;;;;;;5132865;27;20023;-79
2021/10/26 00:39:09;;;;;;;;;;;179.40;2252.80;;;;;;5115153;28;20019;-80
2021/10/26 00:41:35;;;;;;;11.55;6.20;;;179.40;2252.80;;;;;;5103381;28;19908;-81
2021/10/26 00:44:01;;;;;;;10.73;6.60;;;179.20;2252.80;;;;;;5112150;28;20039;-79
2021/10/26 00:46:30;;;;;;;;;;;179.30;2252.80;;;;;;5133114;28;20138;-77
2021/10/26 00:48:57;;;;;;;13.57;6.10;;;179.20;2252.80;;;;;;5113190;28;19962;-77
2021/10/26 00:51:23;;;;;;;15.48;6.53;;;154.50;2252.80;;;;;;5132179;28;20497;-77
2021/10/26 00:53:50;;;;;;;;;;;179.20;2252.80;;;;;;5133057;28;20011;-76
2021/10/26 00:56:16;;;;;;;11.70;4.93;;;179.30;2252.80;;;;;;5101592;28;20357;-80
2021/10/26 00:58:41;;;;;;;;;;;179.20;2252.80;;;;;;5133205;28;20035;-76
2021/10/26 01:01:07;;;;;;;14.55;6.68;;;179.20;2252.80;;;;;;5114473;28;20409;-80
2021/10/26 01:03:32;;;;;;;;;;;179.20;2252.80;;;;;;5114707;28;20027;-77
2021/10/26 01:05:59;;;;;;;10.02;6.00;;;179.20;2252.80;;;;;;5130734;28;19934;-78
2021/10/26 01:08:26;;;;;;;11.82;6.68;;;179.20;2252.80;;;;;;5114213;28;20058;-79
2021/10/26 01:10:52;;;;;;;16.58;6.53;;;179.20;2252.80;;;;;;5114050;28;20034;-82
2021/10/26 01:13:20;;;;;;;;;;;179.20;2252.80;;;;;;5133590;28;20096;-77
2021/10/26 01:15:47;;;;;;;9.40;5.88;;;179.30;2252.80;;;;;;5114533;28;19910;-78
2021/10/26 01:18:14;;;;;;;14.40;6.00;;;179.20;2252.80;;;;;;5114734;28;20026;-79
2021/10/26 01:20:40;;;;;;;13.63;6.05;;;179.30;2252.80;;;;;;5114951;28;20019;-78
2021/10/26 01:23:05;;;;;;;;;;;179.40;2252.80;;;;;;5115294;28;20030;-77
2021/10/26 01:25:31;;;;;;;15.02;6.00;;;179.40;2252.80;;;;;;5114925;28;19920;-80
2021/10/26 01:27:58;;;;;;;11.77;6.13;;;179.30;2252.80;;;;;;5114894;28;20019;-79
2021/10/26 01:30:32;;;;;;;19.05;6.80;;;179.40;2252.80;;;;;;5135555;27;20026;-81
2021/10/26 01:32:58;;;;;;;11.70;6.45;;;179.50;2252.80;;;;;;5134706;27;20007;-81
2021/10/26 01:35:24;;;;;;;11.50;6.68;;;179.40;2252.80;;;;;;5119031;27;20038;-80
2021/10/26 01:37:50;;;;;;;;;;;179.60;2252.80;;;;;;5119324;27;20487;-81
2021/10/26 01:40:16;;;;;;;14.40;6.80;;;179.70;2252.80;;;;;;5118043;27;19907;-80
2021/10/26 01:42:42;;;;;;;11.13;6.50;;;179.60;2252.80;;;;;;5118954;27;20102;-81
2021/10/26 01:45:09;;;;;;;10.23;5.95;;;179.50;2252.80;;;;;;5118847;27;20033;-81
2021/10/26 01:47:35;;;;;;;11.27;6.32;;;179.60;2252.80;;;;;;5118563;27;20015;-77
2021/10/26 01:50:01;;;;;;;;;;;179.70;2252.80;;;;;;5119297;27;20023;-80
2021/10/26 01:52:26;;;;;;;10.65;6.03;;;179.70;2252.80;;;;;;5118974;27;19907;-78
2021/10/26 01:54:52;;;;;;;;;;;179.70;2252.80;;;;;;5119147;27;20027;-77
2021/10/26 01:57:20;;;;;;;9.75;5.53;;;179.80;2252.80;;;;;;5115796;27;19911;-77
2021/10/26 01:59:47;;;;;;;13.52;6.30;;;179.80;2252.80;;;;;;5118610;27;20503;-81
2021/10/26 02:02:12;;;;;;;16.77;6.63;;;179.80;2252.80;;;;;;5118628;27;20478;-81
2021/10/26 02:04:38;;;;;;;;;;;179.80;2252.80;;;;;;5118681;27;20111;-80
2021/10/26 02:07:05;;;;;;;10.00;5.97;;;179.80;2252.80;;;;;;5136510;27;19907;-76
2021/10/26 02:09:31;;;;;;;10.85;6.63;;;179.90;2252.80;;;;;;5118396;27;20027;-78
2021/10/26 02:11:57;;;;;;;15.32;6.82;;;180.00;2252.80;;;;;;5116889;27;20480;-79
2021/10/26 02:14:22;;;;;;;;;;;179.90;2252.80;;;;;;5118794;27;20076;-81
2021/10/26 02:16:48;;;;;;;15.48;6.32;;;179.80;2252.80;;;;;;5118198;27;19915;-77
2021/10/26 02:19:15;;;;;;;;;;;179.70;2252.80;;;;;;5118444;27;20404;-80
2021/10/26 02:21:41;;;;;;;16.80;7.63;;;179.50;2252.80;;;;;;5118539;27;19998;-77
2021/10/26 02:24:06;;;;;;;;;;;179.30;2252.80;;;;;;5136573;27;20109;-78
2021/10/26 02:26:32;;;;;;;21.50;7.85;;;179.20;2252.80;;;;;;5117757;27;19911;-78
2021/10/26 02:28:58;;;;;;;;;;;154.50;2252.80;;;;;;5117948;27;20023;-78
2021/10/26 02:31:24;;;;;;;12.38;6.70;;;179.30;2252.80;;;;;;5135732;27;19903;-79
2021/10/26 02:33:49;;;;;;;;;;;179.40;2252.80;;;;;;5118054;27;20031;-79
2021/10/26 02:36:15;;;;;;;15.10;6.95;;;179.40;2252.80;;;;;;5117797;27;19910;-78
2021/10/26 02:38:41;;;;;;;;;;;179.30;2252.80;;;;;;5136301;27;20026;-79
2021/10/26 02:41:06;;;;;;;13.85;7.68;;;179.30;2252.80;;;;;;5134647;27;19907;-76
2021/10/26 02:43:32;;;;;;;;;;;179.30;2252.80;;;;;;5117543;27;20103;-77
2021/10/26 02:46:00;;;;;;;12.70;6.70;;;179.40;2252.80;;;;;;5115893;27;19911;-77
2021/10/26 02:48:27;;;;;;;13.68;7.28;;;179.60;2252.80;;;;;;5109972;27;20030;-77
2021/10/26 02:50:53;;;;;;;13.00;7.60;;;179.50;2252.80;;;;;;5135235;27;20030;-76
2021/10/26 02:53:19;;;;;;;14.68;7.15;;;179.40;2252.80;;;;;;5116999;27;20030;-77
2021/10/26 02:55:45;;;;;;;;;;;179.50;2252.80;;;;;;5117296;27;20027;-77
2021/10/26 02:58:10;;;;;;;14.32;7.90;;;179.40;2252.80;;;;;;5116995;27;20346;-78
2021/10/26 03:00:36;;;;;;;;;;;179.30;2252.80;;;;;;5135679;27;20068;-77
2021/10/26 03:03:02;;;;;;;12.00;7.32;;;179.40;2252.80;;;;;;5117113;27;20017;-78
2021/10/26 03:05:27;;;;;;;;;;;179.30;2252.80;;;;;;5117283;27;20035;-76
2021/10/26 03:07:53;;;;;;;17.45;8.05;;;179.40;2252.80;;;;;;5135236;27;19990;-76
2021/10/26 03:10:18;;;;;;;;;;;179.20;2252.80;;;;;;5117134;27;20030;-79
2021/10/26 03:12:44;;;;;;;14.45;7.82;;;154.50;2252.80;;;;;;5116357;27;20006;-76
2021/10/26 03:15:11;;;;;;;;;;;154.50;2252.80;;;;;;5117095;27;20024;-78
2021/10/26 03:17:39;;;;;;;12.88;6.93;;;179.20;2252.80;;;;;;5116686;27;19963;-76
2021/10/26 03:20:05;;;;;;;12.25;7.05;;;179.20;2252.80;;;;;;5116654;27;20072;-78
2021/10/26 03:22:32;;;;;;;15.43;7.97;;;154.50;2252.80;;;;;;5116577;27;20023;-78
2021/10/26 03:24:58;;;;;;;16.83;8.25;;;154.40;2252.80;;;;;;5134856;27;20023;-78
2021/10/26 03:27:25;;;;;;;;;;;154.50;2252.80;;;;;;5116884;27;20026;-79
2021/10/26 03:29:50;;;;;;;10.75;5.50;;;154.50;2252.80;;;;;;5116406;27;20352;-79
2021/10/26 03:32:17;;;;;;;;;;;154.40;2252.80;;;;;;5117302;27;20039;-77
2021/10/26 03:34:43;;;;;;;21.80;7.85;;;154.20;2252.80;;;;;;5116219;27;19903;-77
2021/10/26 03:37:09;;;;;;;20.38;8.00;;;154.50;2252.80;;;;;;5134558;27;20042;-78
2021/10/26 03:39:34;;;;;;;;;;;154.50;2252.80;;;;;;5116689;27;20076;-77
2021/10/26 03:42:01;;;;;;;14.88;7.97;;;154.50;2252.80;;;;;;5115837;27;19908;-78
2021/10/26 03:44:27;;;;;;;16.65;8.73;;;154.40;2252.80;;;;;;5116098;27;20035;-76
2021/10/26 03:46:53;;;;;;;15.55;8.02;;;154.50;2252.80;;;;;;5134355;27;20460;-78
2021/10/26 03:49:19;;;;;;;;;;;154.50;2252.80;;;;;;5134737;27;20019;-77
2021/10/26 03:51:44;;;;;;;14.20;7.88;;;154.50;2252.80;;;;;;5130153;27;19974;-77
2021/10/26 03:54:11;;;;;;;;;;;154.40;2252.80;;;;;;5116246;27;20060;-78
2021/10/26 03:56:36;;;;;;;15.07;7.95;;;154.40;2252.80;;;;;;5134090;27;19914;-77
2021/10/26 03:59:04;;;;;;;;;;;154.30;2252.80;;;;;;5116241;27;20015;-79
2021/10/26 04:01:31;;;;;;;13.35;7.75;;;154.30;2252.80;;;;;;5133377;27;20287;-79
2021/10/26 04:03:58;;;;;;;17.20;8.23;;;154.30;2252.80;;;;;;5115844;27;20072;-77
2021/10/26 04:06:25;;;;;;;19.70;8.13;;;154.40;2252.80;;;;;;5104919;28;20034;-78
2021/10/26 04:08:57;;;;;;;15.93;8.52;;;154.30;2252.80;;;;;;5115300;27;20019;-77
2021/10/26 04:11:24;;;;;;;18.27;9.20;;;154.40;2252.80;;;;;;5114910;27;20038;-77
2021/10/26 04:13:50;;;;;;;16.40;8.18;;;154.40;2252.80;;;;;;5133891;27;20035;-77
2021/10/26 04:16:16;;;;;;;20.10;8.90;;;154.50;2252.80;;;;;;5115598;27;20049;-78
2021/10/26 04:18:42;;;;;;;;;;;154.50;2252.80;;;;;;5115091;27;20480;-78
2021/10/26 04:21:11;;;;;;;19.85;7.97;;;154.50;2252.80;;;;;;5115425;28;19911;-78
2021/10/26 04:23:38;;;;;;;20.95;9.82;;;154.40;2252.80;;;;;;5115463;27;20111;-77
2021/10/26 04:26:05;;;;;;;36.50;9.57;;;154.30;2252.80;;;;;;5115234;28;20561;-77
2021/10/26 04:28:32;;;;;;;21.02;9.35;;;154.20;2252.80;;;;;;5115251;27;20483;-79
2021/10/26 04:31:02;;;;;;;21.10;9.02;;;154.20;2252.80;;;;;;5115501;27;20019;-79
2021/10/26 04:33:29;;;;;;;19.85;9.23;;;154.30;2252.80;;;;;;5115139;27;20019;-78
2021/10/26 04:35:55;;;;;;;17.17;9.60;;;154.20;2252.80;;;;;;5112251;28;20035;-79
2021/10/26 04:38:21;;;;;;;16.00;9.20;;;154.10;2252.80;;;;;;5115397;28;20020;-79
2021/10/26 04:40:48;;;;;;;15.75;8.18;;;154.20;2252.80;;;;;;5133511;28;20027;-77
2021/10/26 04:43:16;;;;;;;18.17;8.70;;;154.20;2252.80;;;;;;5115251;28;20107;-78
2021/10/26 04:45:43;;;;;;;17.02;8.88;;;154.30;2252.80;;;;;;5111965;28;20422;-79
2021/10/26 04:48:14;;;;;;;;;;;154.20;2252.80;;;;;;5113521;28;20023;-77
2021/10/26 04:50:40;;;;;;;19.08;9.43;;;154.20;2252.80;;;;;;5095396;28;20554;-77
2021/10/26 04:53:05;;;;;;;;;;;154.20;2252.80;;;;;;5095808;28;20020;-78
2021/10/26 04:55:31;;;;;;;15.32;8.48;;;154.10;2252.80;;;;;;5095423;28;20281;-77
2021/10/26 04:57:57;;;;;;;;;;;154.10;2252.80;;;;;;5095653;28;20020;-78
2021/10/26 05:00:22;;;;;;;16.83;8.00;;;154.10;2252.80;;;;;;5096119;28;19911;-78
2021/10/26 05:02:48;;;;;;;;;;;154.00;2252.80;;;;;;5096292;28;20515;-78
2021/10/26 05:05:14;;;;;;;23.17;12.20;;;154.00;2252.80;;;;;;5096906;28;19961;-78
2021/10/26 05:07:39;;;;;;;;;;;153.90;2252.80;;;;;;5099694;28;20024;-78
2021/10/26 05:10:06;;;;;;;26.65;15.02;;;153.90;2252.80;;;;;;5112715;27;19907;-78
2021/10/26 05:12:31;;;;;;;31.45;18.25;;;153.90;2252.80;;;;;;5119425;27;20047;-77
2021/10/26 05:14:57;;;;;;;;;;;153.80;2252.80;;;;;;5119535;27;20027;-76
2021/10/26 05:17:24;;;;;;;19.70;8.65;;;153.80;2252.80;;;;;;5119558;27;19910;-78
2021/10/26 05:19:52;;;;;;;23.83;10.52;;;153.80;2252.80;;;;;;5119430;27;20057;-77
2021/10/26 05:22:19;;;;;;;30.00;10.07;;;153.80;2252.80;;;;;;5119528;27;20037;-78
2021/10/26 05:24:45;;;;;;;17.55;9.07;;;153.90;2252.80;;;;;;5137992;27;20023;-80
2021/10/26 05:27:10;;;;;;;;;;;154.00;2252.80;;;;;;5120050;27;20046;-79
2021/10/26 05:29:39;;;;;;;16.75;8.15;;;153.90;2252.80;;;;;;5119286;27;20006;-79
2021/10/26 05:32:06;;;;;;;15.05;8.43;;;153.80;2252.80;;;;;;5138053;27;20019;-77
2021/10/26 05:34:32;;;;;;;15.82;8.13;;;154.00;2252.80;;;;;;5119030;27;20031;-78
2021/10/26 05:36:58;;;;;;;17.17;8.48;;;154.00;2252.80;;;;;;5119211;27;20019;-77
2021/10/26 05:39:24;;;;;;;;;;;154.10;2252.80;;;;;;5121583;27;20031;-78
2021/10/26 05:41:49;;;;;;;15.77;8.63;;;154.30;2252.80;;;;;;5101677;27;19911;-78
2021/10/26 05:44:15;;;;;;;;;;;154.40;2252.80;;;;;;5104971;28;20032;-78
2021/10/26 05:46:41;;;;;;;16.90;8.40;;;154.30;2252.80;;;;;;5098461;28;19917;-78
2021/10/26 05:49:06;;;;;;;;;;;154.20;2252.80;;;;;;5098216;28;20038;-77
2021/10/26 05:51:32;;;;;;;18.55;9.13;;;154.30;2252.80;;;;;;5108451;27;20257;-77
2021/10/26 05:53:58;;;;;;;;;;;154.30;2252.80;;;;;;5120296;27;20019;-75
2021/10/26 05:56:24;;;;;;;17.23;9.57;;;154.20;2252.80;;;;;;5116399;27;20376;-78
2021/10/26 05:58:53;;;;;;;;;;;154.20;2252.80;;;;;;5121433;27;20094;-79
2021/10/26 06:01:21;;;;;;;12.75;7.68;;;154.30;2252.80;;;;;;5107141;27;19907;-78
2021/10/26 06:03:47;;;;;;;22.83;10.48;;;154.30;2252.80;;;;;;5118718;27;20027;-77
2021/10/26 06:06:12;;;;;;;;;;;154.20;2252.80;;;;;;5118668;27;20027;-77
2021/10/26 06:08:38;;;;;;;18.95;9.15;;;154.30;2252.80;;;;;;5115321;27;19964;-77
2021/10/26 06:11:10;;;;;;;;;;;154.40;2252.80;;;;;;5107007;27;20376;-77
2021/10/26 06:13:41;;;;;;;17.38;8.77;;;179.20;2252.80;;;;;;5136416;27;19915;-76
2021/10/26 06:16:07;;;;;;;18.27;9.70;;;179.20;2252.80;;;;;;5115781;27;20167;-76
2021/10/26 06:18:33;;;;;;;;;;;179.20;2252.80;;;;;;5132957;27;20451;-76
2021/10/26 06:20:59;;;;;;;18.75;8.80;;;179.30;2252.80;;;;;;5114155;27;19908;-77
2021/10/26 06:23:25;;;;;;;16.02;8.88;;;179.40;2252.80;;;;;;5117449;27;20068;-77
2021/10/26 06:25:51;;;;;;;;;;;179.50;2252.80;;;;;;5117969;27;20023;-78
2021/10/26 06:28:17;;;;;;;23.90;8.50;;;179.60;2252.80;;;;;;5117303;27;19930;-76
2021/10/26 06:30:43;;;;;;;;;;;179.70;2252.80;;;;;;5117853;27;20035;-74
2021/10/26 06:33:09;;;;;;;16.30;9.32;;;179.80;2252.80;;;;;;5117978;27;19910;-74
2021/10/26 06:35:35;;;;;;;16.52;8.88;;;179.90;2252.80;;;;;;5117215;27;20472;-74
2021/10/26 06:38:00;;;;;;;;;;;180.00;2252.80;;;;;;5117288;27;20027;-76
2021/10/26 06:40:28;;;;;;;21.95;10.10;;;180.10;2252.80;;;;;;5117193;27;20383;-75
2021/10/26 06:42:54;;;;;;;17.17;8.65;;;204.80;2252.80;;;;;;5135843;27;20024;-75
2021/10/26 06:45:19;;;;;;;;;;;204.90;2252.80;;;;;;5117520;27;20066;-76
2021/10/26 06:47:45;;;;;;;20.15;9.65;;;205.00;2252.80;;;;;;5127303;27;19914;-76
2021/10/26 06:50:11;;;;;;;;;;;205.10;2252.80;;;;;;5133419;27;20135;-78
2021/10/26 06:52:37;;;;;;;16.73;9.75;;;205.20;2252.80;;;;;;5116881;27;19965;-75
2021/10/26 06:55:06;;;;;;;19.65;10.75;;;205.30;2252.80;;;;;;5114857;27;20030;-75
2021/10/26 06:57:33;;;;;;;21.55;10.02;;;205.30;2252.80;;;;;;5135656;27;20042;-74
2021/10/26 06:59:59;;;;;;;19.13;11.27;;;205.40;2252.80;;;;;;5135457;27;20103;-75
2021/10/26 07:02:25;;;;;;;20.70;9.85;;;205.40;2252.80;;;;;;5133984;27;20064;-73
2021/10/26 07:04:50;;;;;;;;;;;205.60;2252.80;;;;;;5134805;27;20023;-76
2021/10/26 07:07:16;;;;;;;21.02;9.32;;;205.60;2252.80;;;;;;5131927;27;19913;-74
2021/10/26 07:09:42;;;;;;;;;;;205.70;2252.80;;;;;;5130302;27;20027;-75
2021/10/26 07:12:08;;;;;;;20.25;10.48;;;230.40;2252.80;;;;;;5120100;27;19922;-75
2021/10/26 07:14:33;;;;;;;;;;;230.50;2252.80;;;;;;5111360;28;20040;-75
2021/10/26 07:16:59;;;;;;;22.15;9.63;;;230.60;2252.80;;;;;;5107896;28;19953;-75
2021/10/26 07:19:24;;;;;;;;;;;230.70;2252.80;;;;;;5109315;28;20386;-77
2021/10/26 07:21:51;;;;;;;17.85;9.18;;;230.80;2252.80;;;;;;5086496;28;19915;-76
2021/10/26 07:24:17;;;;;;;26.75;10.07;;;230.80;2252.80;;;;;;5087751;28;20032;-75
2021/10/26 07:26:44;;;;;;;19.67;10.38;;;230.90;2252.80;;;;;;5093164;28;20019;-76
2021/10/26 07:29:10;;;;;;;23.90;10.63;;;231.00;2252.80;;;;;;5095298;28;20015;-76
2021/10/26 07:31:35;;;;;;;;;;;231.00;2252.80;;;;;;5114054;28;20433;-80
2021/10/26 07:34:02;;;;;;;25.77;13.23;;;231.10;2252.80;;;;;;5095719;28;19903;-76
2021/10/26 07:36:51;;;;;;;33.40;16.17;;;231.20;2252.80;;;;;;5087310;28;20032;-75
2021/10/26 07:41:58;;;;;;;37.50;18.40;;;256.00;2252.80;;;;;;5112465;28;20398;-76
2021/10/26 07:44:24;;;;;;;33.90;18.25;;;256.00;2252.80;;;;;;5090245;28;20027;-75
2021/10/26 07:46:50;;;;;;;34.25;18.75;;;256.10;2252.80;;;;;;5093231;28;20461;-75
2021/10/26 07:49:16;;;;;;;30.90;18.52;;;256.20;2252.80;;;;;;5093075;28;20039;-75
2021/10/26 07:51:42;;;;;;;31.80;16.15;;;256.30;2252.80;;;;;;5094240;28;20039;-75
2021/10/26 07:54:08;;;;;;;;;;;256.40;2252.80;;;;;;5094255;28;20030;-76
2021/10/26 07:56:34;;;;;;;34.08;19.10;;;256.50;2252.80;;;;;;5095757;28;19904;-77
2021/10/26 07:59:02;;;;;;;;;;;256.60;2252.80;;;;;;5114327;28;20020;-75
2021/10/26 08:01:27;;;;;;;29.58;14.70;;;256.70;2252.80;;;;;;5095052;28;20380;-76
2021/10/26 08:03:56;;;;;;;23.20;11.85;;;256.80;2252.80;;;;;;5113168;28;20016;-75
2021/10/26 08:06:22;;;;;;;25.10;13.35;;;256.90;2252.80;;;;;;5095247;28;20028;-75
2021/10/26 08:08:49;;;;;;;22.48;12.30;;;281.70;2278.40;;;;;;5111349;28;20515;-75
2021/10/26 08:11:15;;;;;;;21.63;9.77;;;281.90;2278.40;;;;;;5094524;28;20027;-76
2021/10/26 08:13:41;;;;;;;14.15;8.98;;;282.00;2278.40;;;;;;5093277;28;20115;-76
2021/10/26 08:16:08;;;;;;;14.95;8.25;;;282.10;2278.40;;;;;;5094390;28;20047;-75
2021/10/26 08:18:34;;;;;;;16.60;7.95;;;282.10;2278.40;;;;;;5110057;28;20061;-75
2021/10/26 08:21:00;;;;;;;16.88;7.65;;;282.10;2278.40;;;;;;5107082;28;20023;-75
2021/10/26 08:23:26;;;;;;;;;;;282.20;2278.40;;;;;;5106315;28;20035;-75
2021/10/26 08:25:55;;;;;;;18.27;6.65;;;282.40;2278.40;;;;;;5108198;28;19912;-74
2021/10/26 08:28:22;;;;;;;12.65;8.10;;;282.40;2278.40;;;;;;5083313;28;20579;-75
2021/10/26 08:35:57;;;;;;;20.63;9.25;;;307.40;2304.00;;;;;;5106155;28;20081;-74
2021/10/26 08:38:23;;;;;;;11.95;5.90;;;307.50;2304.00;;;;;;5108251;28;20447;-74
2021/10/26 08:40:49;;;;;;;;;;;307.60;2304.00;;;;;;5105290;28;20020;-75
2021/10/26 08:43:25;;;;;;;11.10;7.33;;;307.60;2304.00;;;;;;5108497;28;19916;-75
2021/10/26 08:45:52;;;;;;;;;;;307.60;2304.00;;;;;;5107803;28;20032;-74
2021/10/26 08:48:21;;;;;;;14.93;6.95;;;307.80;2304.00;;;;;;5111797;28;19910;-74
2021/10/26 08:50:51;;;;;;;18.35;8.45;;;307.80;2304.00;;;;;;5103695;28;20093;-75
2021/10/26 08:53:17;;;;;;;10.25;6.50;;;307.80;2304.00;;;;;;5109394;28;20038;-74
2021/10/26 08:55:44;;;;;;;13.80;7.88;;;308.00;2304.00;;;;;;5107865;28;20016;-74
2021/10/26 08:58:10;;;;;;;12.15;6.40;;;308.10;2304.00;;;;;;5109059;28;20016;-75
2021/10/26 09:00:39;;;;;;;17.92;7.32;;;308.10;2252.80;;;;;;5092227;28;20032;-74
2021/10/26 09:03:23;;;;;;;16.60;7.35;;;332.80;2304.00;;;;;;5111713;28;20022;-75
2021/10/26 09:05:53;;;;;;;13.27;5.75;;;332.80;2278.40;;;;;;5090569;28;20036;-76
2021/10/26 09:08:25;;;;;;;13.07;6.22;;;332.90;2252.80;;;;;;5109087;28;20103;-75
2021/10/26 09:10:52;;;;;;;18.75;7.07;;;332.80;2227.20;;;;;;5109707;28;20073;-76
2021/10/26 09:19:26;;;;;;;14.50;6.97;;;333.20;2252.80;;;;;;5110815;28;20060;-74
2021/10/26 09:21:59;;;;;;;12.93;7.35;;;333.30;2227.20;;;;;;5124310;28;20069;-74
2021/10/26 09:24:27;;;;;;;9.73;6.40;;;333.40;2176.00;;;;;;5129241;28;20144;-73
2021/10/26 09:27:02;;;;;;;14.13;7.05;;;333.40;2201.60;;;;;;5130496;28;20023;-74
2021/10/26 09:29:28;;;;;;;13.25;6.15;;;333.50;2176.00;;;;;;5129486;28;20024;-74
2021/10/26 09:32:04;;;;;;;16.88;8.70;;;333.60;2150.40;;;;;;5131884;28;20362;-74
2021/10/26 09:34:41;;;;;;;10.00;5.88;;;358.40;2176.00;;;;;;5129845;28;20031;-74
2021/10/26 09:37:07;;;;;;;12.65;6.90;;;358.60;2176.00;;;;;;5127706;28;20030;-73
2021/10/26 09:39:33;;;;;;;13.25;6.15;;;358.60;2124.80;;;;;;5130623;28;20074;-74
2021/10/26 09:42:06;;;;;;;9.55;5.82;;;358.60;2124.80;;;;;;5125056;28;20425;-73
2021/10/26 09:44:42;;;;;;;12.73;5.93;;;358.60;2124.80;;;;;;5122742;28;20130;-74
2021/10/26 09:47:19;;;;;;;18.20;6.80;;;358.80;2124.80;;;;;;5102397;28;20091;-74
2021/10/26 09:49:52;;;;;;;14.52;6.60;;;358.80;2073.60;;;;;;5126211;27;20067;-79
2021/10/26 09:52:26;;;;;;;11.93;5.38;;;359.00;2099.20;;;;;;5131341;27;20386;-76
2021/10/26 09:55:31;;;;;;;14.10;5.82;;;358.90;2048.00;;;;;;5118310;27;20480;-74
2021/10/26 09:58:02;;;;;;;12.48;6.60;;;359.00;2048.00;;;;;;5103484;28;20035;-74
2021/10/26 10:00:30;;;;;;;12.38;6.50;;;359.10;2048.00;;;;;;5130507;27;20445;-76
2021/10/26 10:02:59;;;;;;;16.15;5.88;;;359.10;2022.40;;;;;;5133769;27;20039;-76
2021/10/26 10:05:27;;;;;;;17.02;6.15;;;359.20;2022.40;;;;;;5135011;27;20073;-76
2021/10/26 10:07:53;;;;;;;14.20;5.80;;;359.30;1996.80;;;;;;5123460;27;20029;-75
2021/10/26 10:10:19;;;;;;;25.95;7.05;;;384.10;2022.40;;;;;;5134842;27;20035;-76
2021/10/26 10:12:45;;;;;;;13.77;6.80;;;384.10;1971.20;;;;;;5131055;27;20063;-75
2021/10/26 10:15:14;;;;;;;11.65;5.40;;;384.30;1971.20;;;;;;5125305;27;20038;-75
2021/10/26 10:17:40;;;;;;;13.48;5.70;;;384.00;1945.60;;;;;;5126088;27;20126;-77
2021/10/26 10:20:12;;;;;;;15.52;6.35;;;384.10;1945.60;;;;;;5131882;27;20019;-76
2021/10/26 10:22:41;;;;;;;9.45;5.45;;;384.20;1971.20;;;;;;5126589;27;20052;-77
2021/10/26 10:25:09;;;;;;;16.55;7.05;;;384.40;1945.60;;;;;;5123486;27;20265;-78
2021/10/26 10:27:42;;;;;;;10.95;5.85;;;384.50;1945.60;;;;;;5124031;27;20133;-77
2021/10/26 10:30:09;;;;;;;10.50;5.30;;;384.80;1920.00;;;;;;5131625;27;20120;-75
2021/10/26 10:32:36;;;;;;;14.32;6.35;;;384.90;1894.40;;;;;;5130834;27;20026;-77
2021/10/26 10:35:10;;;;;;;16.08;6.55;;;384.90;1894.40;;;;;;5127789;27;20481;-75
2021/10/26 10:37:36;;;;;;;12.10;5.28;;;409.70;1945.60;;;;;;5115455;27;20149;-74
2021/10/26 10:40:04;;;;;;;11.88;5.93;;;409.90;1894.40;;;;;;5134837;27;20055;-77
2021/10/26 10:42:31;;;;;;;11.25;5.53;;;409.70;1894.40;;;;;;5132483;27;20027;-75
2021/10/26 10:45:18;;;;;;;13.00;5.32;;;384.90;1817.60;;;;;;5125326;27;20032;-75
2021/10/26 10:47:44;;;;;;;7.57;4.50;;;409.70;1843.20;;;;;;5130898;27;20081;-76
2021/10/26 10:50:29;;;;;;;14.75;5.93;;;409.60;1817.60;;;;;;5133949;27;20023;-75
2021/10/26 10:53:08;;;;;;;11.18;6.80;;;409.60;1843.20;;;;;;5133544;27;20027;-76
2021/10/26 10:55:35;;;;;;;13.95;5.30;;;409.90;1817.60;;;;;;5133216;27;20042;-76
2021/10/26 10:58:29;;;;;;;11.52;5.82;;;409.80;1792.00;;;;;;5130488;27;20034;-81
2021/10/26 11:01:27;;;;;;;8.40;4.65;;;409.80;1766.40;;;;;;5129185;27;20159;-76
2021/10/26 11:03:55;;;;;;;13.32;6.07;;;410.00;1766.40;;;;;;5110024;27;20027;-75
2021/10/26 11:06:42;;;;;;;9.27;4.93;;;410.20;1792.00;;;;;;5124720;27;20092;-76
2021/10/26 11:09:37;;;;;;;14.05;6.95;;;410.20;1792.00;;;;;;5131894;27;20019;-76
2021/10/26 11:12:20;;;;;;;13.00;5.65;;;410.30;1766.40;;;;;;5129102;27;20039;-75
2021/10/26 11:14:52;;;;;;;9.48;5.05;;;410.50;1766.40;;;;;;5132608;27;20100;-75
2021/10/26 11:17:36;;;;;;;16.77;6.50;;;410.50;1740.80;;;;;;5120324;27;20039;-75
2021/10/26 11:20:09;;;;;;;16.67;5.50;;;410.30;1740.80;;;;;;5127522;27;20016;-74
2021/10/26 11:22:57;;;;;;;9.43;5.15;;;435.30;1766.40;;;;;;5127288;27;20936;-76
2021/10/26 11:25:34;;;;;;;10.52;6.10;;;410.50;1715.20;;;;;;5121672;27;20031;-76
2021/10/26 11:28:25;;;;;;;19.42;5.65;;;410.40;1715.20;;;;;;5122839;27;21421;-76
2021/10/26 11:30:55;;;;;;;11.43;5.93;;;410.30;1689.60;;;;;;5130695;27;20417;-75
2021/10/26 11:33:24;;;;;;;8.95;5.30;;;435.30;1715.20;;;;;;5132219;27;20020;-75
2021/10/26 11:36:00;;;;;;;10.20;5.13;;;435.20;1715.20;;;;;;5133524;27;20023;-77
2021/10/26 11:38:29;;;;;;;12.48;6.40;;;435.50;1715.20;;;;;;5129510;27;20039;-74
2021/10/26 11:41:03;;;;;;;14.10;5.13;;;410.50;1715.20;;;;;;5131165;27;20023;-75
2021/10/26 11:43:50;;;;;;;15.00;5.47;;;435.40;1689.60;;;;;;5130537;27;20376;-74
2021/10/26 11:46:34;;;;;;;22.00;8.60;;;435.20;1664.00;;;;;;5131716;27;20476;-73
2021/10/26 11:49:22;;;;;;;24.02;8.40;;;435.30;1664.00;;;;;;5134280;27;20024;-77
2021/10/26 11:51:57;;;;;;;19.70;9.60;;;435.20;1664.00;;;;;;5122623;27;20042;-74
2021/10/26 11:54:25;;;;;;;26.23;11.15;;;410.50;1664.00;;;;;;5129162;27;20019;-74
2021/10/26 11:56:59;;;;;;;27.25;12.10;;;435.20;1664.00;;;;;;5126249;27;20027;-74
2021/10/26 11:59:29;;;;;;;19.30;9.45;;;410.50;1638.40;;;;;;5116581;27;20019;-74
2021/10/26 12:02:16;;;;;;;16.52;7.70;;;410.40;1638.40;;;;;;5119265;27;20388;-74
2021/10/26 12:04:52;;;;;;;14.38;7.05;;;410.50;1689.60;;;;;;5127377;27;20023;-78
2021/10/26 12:07:22;;;;;;;13.00;5.60;;;410.40;1638.40;;;;;;5132805;27;20035;-75
2021/10/26 12:09:52;;;;;;;11.23;5.85;;;410.50;1664.00;;;;;;5124861;27;20043;-75
2021/10/26 12:12:20;;;;;;;12.23;6.05;;;410.50;1664.00;;;;;;5129491;27;20055;-75
2021/10/26 12:14:57;;;;;;;14.43;8.32;;;410.30;1664.00;;;;;;5115702;27;20055;-75
2021/10/26 12:17:29;;;;;;;20.98;6.95;;;410.30;1638.40;;;;;;5134364;27;20034;-76
2021/10/26 12:20:30;;;;;;;28.35;7.97;;;435.20;1638.40;;;;;;5134168;27;20026;-75
2021/10/26 12:22:59;;;;;;;9.60;6.30;;;410.50;1638.40;;;;;;5051046;28;20517;-73
2021/10/26 12:25:28;;;;;;;15.60;6.50;;;410.30;1638.40;;;;;;5050697;28;20033;-75
2021/10/26 12:28:04;;;;;;;14.15;4.03;;;410.30;1638.40;;;;;;5051039;28;20410;-74
2021/10/26 12:30:43;;;;;;;13.23;6.50;;;410.20;1638.40;;;;;;5050840;28;20119;-75
2021/10/26 12:33:22;;;;;;;17.63;9.95;;;410.30;1638.40;;;;;;5050416;28;20044;-75
2021/10/26 12:35:53;;;;;;;14.95;6.40;;;410.20;1638.40;;;;;;5034046;28;20033;-74
2021/10/26 12:38:37;;;;;;;9.95;5.53;;;410.20;1638.40;;;;;;5050260;28;20025;-74
2021/10/26 12:41:04;;;;;;;8.98;5.05;;;410.00;1638.40;;;;;;5049958;28;20061;-74
2021/10/26 12:43:30;;;;;;;8.88;4.43;;;410.20;1638.40;;;;;;5050120;28;20033;-74
2021/10/26 12:46:13;;;;;;;11.48;7.13;;;410.50;1612.80;;;;;;5049738;28;20494;-74